createdAt,value
2022-09-20T00:01:35.871Z,16.26
2022-09-20T00:04:06.944Z,16.22
2022-09-20T00:06:36.498Z,16.19
2022-09-20T00:09:06.270Z,15.87
2022-09-20T00:11:36.376Z,16.21
2022-09-20T00:14:08.742Z,16.17
2022-09-20T00:16:40.573Z,16.15
2022-09-20T00:19:18.258Z,16.14
2022-09-20T00:21:46.668Z,15.74
2022-09-20T00:24:15.079Z,16.11
2022-09-20T00:26:43.476Z,16.02
2022-09-20T00:29:12.739Z,15.93
2022-09-20T00:31:42.814Z,15.77
2022-09-20T00:34:31.331Z,15.83
2022-09-20T00:36:59.702Z,15.90
2022-09-20T00:39:28.162Z,16.00
2022-09-20T00:41:56.480Z,15.98
2022-09-20T00:44:57.249Z,16.00
2022-09-20T00:47:39.461Z,15.60
2022-09-20T00:50:23.986Z,15.94
2022-09-20T00:52:58.610Z,15.77
2022-09-20T00:55:28.258Z,15.94
2022-09-20T00:57:56.894Z,15.85
2022-09-20T01:00:25.398Z,15.96
2022-09-20T01:02:59.462Z,15.94
2022-09-20T01:05:29.518Z,15.86
2022-09-20T01:07:58.898Z,15.76
2022-09-20T01:10:27.395Z,15.81
2022-09-20T01:12:56.186Z,15.29
2022-09-20T01:15:27.942Z,15.77
2022-09-20T01:17:59.478Z,15.75
2022-09-20T01:20:33.046Z,15.75
2022-09-20T01:23:28.512Z,15.59
2022-09-20T01:26:32.056Z,15.68
2022-09-20T01:29:12.042Z,15.56
2022-09-20T01:31:47.922Z,15.67
2022-09-20T01:34:19.587Z,15.56
2022-09-20T01:36:54.338Z,15.43
2022-09-20T01:39:34.628Z,15.34
2022-09-20T01:42:07.808Z,15.27
2022-09-20T01:44:44.347Z,15.17
2022-09-20T01:47:25.631Z,15.15
2022-09-20T01:50:04.801Z,15.15
2022-09-20T01:53:17.779Z,15.05
2022-09-20T01:56:33.460Z,15.05
2022-09-20T01:59:48.139Z,14.69
2022-09-20T02:03:12.614Z,15.12
2022-09-20T02:06:12.836Z,14.87
2022-09-20T02:09:26.807Z,14.91
2022-09-20T02:12:24.011Z,14.84
2022-09-20T02:15:04.749Z,14.75
2022-09-20T02:17:42.812Z,14.57
2022-09-20T02:20:37.868Z,14.33
2022-09-20T02:23:23.437Z,14.22
2022-09-20T02:26:06.555Z,14.03
2022-09-20T02:28:55.877Z,14.59
2022-09-20T02:32:14.815Z,14.63
2022-09-20T02:35:09.727Z,14.64
2022-09-20T02:38:03.024Z,14.46
2022-09-20T02:41:05.221Z,14.57
2022-09-20T02:43:47.779Z,14.42
2022-09-20T02:46:25.623Z,14.34
2022-09-20T02:49:03.059Z,14.02
2022-09-20T02:51:41.004Z,14.51
2022-09-20T02:54:24.039Z,14.25
2022-09-20T02:57:01.625Z,14.36
2022-09-20T02:59:40.358Z,14.19
2022-09-20T03:02:19.700Z,14.09
2022-09-20T03:05:04.716Z,14.20
2022-09-20T03:07:47.189Z,14.17
2022-09-20T03:10:26.605Z,14.16
2022-09-20T03:13:12.139Z,14.15
2022-09-20T03:15:56.799Z,14.30
2022-09-20T03:18:42.253Z,14.32
2022-09-20T03:21:35.025Z,14.38
2022-09-20T03:24:16.062Z,14.41
2022-09-20T03:26:57.366Z,13.66
2022-09-20T03:29:46.715Z,14.55
2022-09-20T03:32:32.136Z,14.56
2022-09-20T03:35:16.937Z,14.56
2022-09-20T03:38:09.935Z,14.43
2022-09-20T03:41:30.686Z,14.47
2022-09-20T03:44:25.850Z,14.66
2022-09-20T03:47:09.482Z,14.75
2022-09-20T03:50:02.439Z,14.78
2022-09-20T03:53:02.562Z,14.85
2022-09-20T03:56:18.777Z,14.87
2022-09-20T03:59:10.739Z,15.05
2022-09-20T04:02:08.147Z,15.20
2022-09-20T04:04:47.056Z,14.60
2022-09-20T04:07:23.646Z,15.21
2022-09-20T04:10:20.359Z,15.30
2022-09-20T04:13:06.414Z,15.47
2022-09-20T04:15:51.202Z,15.57
2022-09-20T04:18:30.212Z,15.60
2022-09-20T04:21:06.367Z,15.55
2022-09-20T04:23:46.284Z,15.65
2022-09-20T04:26:23.739Z,15.43
2022-09-20T04:28:58.528Z,15.64
2022-09-20T04:31:41.174Z,15.72
2022-09-20T04:34:18.362Z,15.65
2022-09-20T04:36:58.974Z,15.77
2022-09-20T04:39:44.340Z,15.74
2022-09-20T04:42:58.933Z,15.79
2022-09-20T04:46:21.537Z,15.84
2022-09-20T04:49:28.275Z,15.82
2022-09-20T04:52:56.825Z,15.81
2022-09-20T04:55:52.121Z,15.68
2022-09-20T04:58:52.439Z,15.86
2022-09-20T05:02:16.363Z,15.91
2022-09-20T05:05:30.112Z,15.37
2022-09-20T05:08:55.384Z,15.81
2022-09-20T05:12:19.524Z,15.73
2022-09-20T05:15:17.241Z,15.73
2022-09-20T05:18:19.597Z,15.82
2022-09-20T05:21:08.235Z,15.80
2022-09-20T05:23:56.477Z,15.80
2022-09-20T05:26:38.982Z,15.77
2022-09-20T05:29:16.111Z,15.73
2022-09-20T05:31:53.220Z,15.85
2022-09-20T05:34:33.150Z,15.84
2022-09-20T05:37:13.474Z,15.91
2022-09-20T05:39:50.888Z,15.90
2022-09-20T05:42:28.661Z,15.98
2022-09-20T05:45:08.885Z,16.02
2022-09-20T05:47:46.229Z,15.93
2022-09-20T05:50:37.052Z,16.08
2022-09-20T05:53:41.695Z,16.13
2022-09-20T05:56:22.497Z,16.15
2022-09-20T05:59:17.206Z,15.65
2022-09-20T06:02:00.159Z,16.03
2022-09-20T06:04:35.867Z,16.15
2022-09-20T06:07:17.842Z,16.10
2022-09-20T06:10:23.470Z,16.19
2022-09-20T06:13:00.646Z,16.20
2022-09-20T06:15:37.834Z,16.15
2022-09-20T06:18:27.093Z,16.17
2022-09-20T06:21:08.761Z,16.19
2022-09-20T06:23:37.714Z,16.19
2022-09-20T06:26:14.823Z,16.28
2022-09-20T06:28:48.482Z,15.41
2022-09-20T06:31:17.359Z,16.20
2022-09-20T06:33:52.129Z,16.34
2022-09-20T06:36:42.326Z,15.99
2022-09-20T06:39:40.696Z,16.42
2022-09-20T06:42:11.157Z,16.43
2022-09-20T06:44:43.005Z,16.47
2022-09-20T06:47:12.131Z,16.51
2022-09-20T06:49:42.392Z,16.63
2022-09-20T06:52:15.909Z,16.68
2022-09-20T06:54:45.716Z,16.15
2022-09-20T06:57:19.687Z,16.72
2022-09-20T06:59:48.180Z,16.58
2022-09-20T07:02:16.803Z,16.70
2022-09-20T07:04:46.547Z,16.80
2022-09-20T07:07:19.339Z,16.82
2022-09-20T07:09:47.671Z,16.82
2022-09-20T07:12:18.301Z,17.00
2022-09-20T07:14:46.534Z,17.31
2022-09-20T07:17:14.841Z,17.60
2022-09-20T07:19:43.196Z,17.86
2022-09-20T07:22:11.517Z,17.91
2022-09-20T07:24:41.190Z,18.18
2022-09-20T07:27:11.568Z,18.28
2022-09-20T07:29:41.487Z,18.43
2022-09-20T07:32:09.966Z,18.52
2022-09-20T07:34:38.354Z,18.64
2022-09-20T07:37:06.700Z,18.73
2022-09-20T07:39:35.173Z,18.84
2022-09-20T07:42:06.361Z,18.98
2022-09-20T07:44:34.842Z,19.07
2022-09-20T07:47:04.757Z,19.20
2022-09-20T07:49:33.193Z,19.50
2022-09-20T07:52:01.509Z,19.80
2022-09-20T07:54:30.162Z,19.92
2022-09-20T07:56:58.515Z,20.03
2022-09-20T07:59:26.914Z,20.25
2022-09-20T08:01:55.280Z,20.60
2022-09-20T08:04:24.985Z,20.88
2022-09-20T08:06:53.435Z,21.16
2022-09-20T08:09:21.919Z,20.93
2022-09-20T08:11:50.249Z,21.81
2022-09-20T08:14:20.025Z,22.08
2022-09-20T08:16:50.442Z,22.18
2022-09-20T08:19:21.762Z,22.10
2022-09-20T08:21:53.918Z,22.26
2022-09-20T08:24:22.661Z,22.01
2022-09-20T08:26:51.082Z,22.72
2022-09-20T08:29:19.620Z,22.94
2022-09-20T08:31:48.112Z,23.11
2022-09-20T08:34:17.724Z,23.30
2022-09-20T08:36:50.095Z,23.40
2022-09-20T08:42:22.924Z,23.48
2022-09-20T08:44:59.535Z,23.61
2022-09-20T08:47:31.339Z,23.62
2022-09-20T08:50:08.890Z,23.28
2022-09-20T08:52:40.732Z,23.14
2022-09-20T08:55:17.341Z,22.96
2022-09-20T08:57:50.208Z,22.45
2022-09-20T09:00:21.622Z,22.57
2022-09-20T09:02:54.079Z,22.25
2022-09-20T09:05:34.939Z,22.12
2022-09-20T09:08:12.430Z,21.92
2022-09-20T09:10:42.848Z,21.44
2022-09-20T09:13:23.614Z,21.99
2022-09-20T09:15:58.612Z,21.91
2022-09-20T09:18:35.139Z,21.79
2022-09-20T09:21:05.335Z,21.68
2022-09-20T09:23:42.502Z,21.64
2022-09-20T09:26:22.574Z,21.72
2022-09-20T09:29:13.445Z,21.73
2022-09-20T09:31:42.026Z,21.78
2022-09-20T09:34:26.433Z,21.81
2022-09-20T09:36:56.398Z,21.93
2022-09-20T09:39:28.909Z,22.07
2022-09-20T09:42:01.252Z,21.74
2022-09-20T09:44:32.855Z,22.11
2022-09-20T09:47:02.059Z,22.40
2022-09-20T09:49:34.200Z,22.63
2022-09-20T09:52:14.639Z,22.54
2022-09-20T09:54:48.983Z,22.18
2022-09-20T09:57:45.671Z,22.00
2022-09-20T10:00:21.998Z,22.20
2022-09-20T10:03:18.885Z,22.03
2022-09-20T10:06:08.742Z,22.11
2022-09-20T10:08:51.076Z,22.01
2022-09-20T10:11:32.043Z,21.94
2022-09-20T10:14:20.559Z,21.33
2022-09-20T10:17:09.420Z,21.72
2022-09-20T10:19:56.129Z,22.32
2022-09-20T10:22:35.231Z,22.36
2022-09-20T10:25:19.409Z,22.70
2022-09-20T10:28:05.882Z,23.03
2022-09-20T10:30:49.003Z,23.36
2022-09-20T10:33:31.556Z,23.47
2022-09-20T10:36:18.161Z,23.27
2022-09-20T10:38:58.293Z,23.02
2022-09-20T10:42:13.380Z,22.87
2022-09-20T10:45:02.758Z,23.03
2022-09-20T10:47:38.729Z,22.90
2022-09-20T10:50:23.135Z,22.78
2022-09-20T10:53:14.081Z,22.47
2022-09-20T10:55:51.292Z,22.53
2022-09-20T10:58:51.982Z,22.82
2022-09-20T11:01:30.044Z,22.73
2022-09-20T11:04:41.394Z,23.06
2022-09-20T11:07:19.528Z,22.77
2022-09-20T11:10:01.753Z,22.01
2022-09-20T11:12:38.327Z,22.13
2022-09-20T11:15:17.419Z,22.08
2022-09-20T11:17:54.227Z,22.25
2022-09-20T11:20:29.571Z,21.22
2022-09-20T11:23:04.217Z,21.30
2022-09-20T11:25:38.537Z,22.32
2022-09-20T11:28:15.841Z,22.53
2022-09-20T11:30:56.705Z,22.70
2022-09-20T11:33:29.675Z,22.67
2022-09-20T11:36:03.051Z,22.65
2022-09-20T11:38:39.006Z,22.40
2022-09-20T11:41:16.893Z,22.41
2022-09-20T11:43:46.228Z,22.24
2022-09-20T11:46:24.991Z,22.49
2022-09-20T11:48:57.947Z,22.21
2022-09-20T11:52:01.845Z,22.02
2022-09-20T11:55:39.280Z,22.16
2022-09-20T11:58:10.458Z,22.11
2022-09-20T12:00:42.748Z,22.61
2022-09-20T12:03:27.207Z,22.12
2022-09-20T12:06:01.238Z,22.17
2022-09-20T12:08:36.026Z,22.53
2022-09-20T12:11:07.442Z,22.53
2022-09-20T12:13:38.929Z,22.57
2022-09-20T12:16:10.928Z,22.79
2022-09-20T12:19:03.875Z,22.39
2022-09-20T12:21:32.311Z,21.74
2022-09-20T12:24:23.736Z,22.19
2022-09-20T12:26:57.909Z,21.68
2022-09-20T12:30:16.852Z,21.73
2022-09-20T12:33:01.109Z,21.48
2022-09-20T12:36:18.481Z,21.68
2022-09-20T12:39:05.223Z,22.15
2022-09-20T12:41:51.721Z,22.42
2022-09-20T12:44:34.150Z,22.54
2022-09-20T12:47:06.213Z,22.64
2022-09-20T12:50:01.679Z,22.91
2022-09-20T12:52:57.513Z,22.90
2022-09-20T12:55:43.820Z,22.15
2022-09-20T12:58:36.146Z,22.64
2022-09-20T13:01:34.395Z,22.32
2022-09-20T13:05:02.943Z,22.38
2022-09-20T13:07:43.596Z,22.34
2022-09-20T13:10:27.046Z,22.48
2022-09-20T13:13:02.357Z,22.60
2022-09-20T13:15:33.257Z,22.71
2022-09-20T13:18:03.318Z,22.21
2022-09-20T13:20:34.930Z,22.55
2022-09-20T13:23:06.305Z,22.72
2022-09-20T13:25:35.870Z,22.59
2022-09-20T13:28:10.955Z,22.54
2022-09-20T13:30:41.955Z,22.64
2022-09-20T13:33:22.691Z,22.12
2022-09-20T13:35:52.695Z,21.42
2022-09-20T13:38:24.399Z,20.49
2022-09-20T13:40:54.152Z,21.20
2022-09-20T13:43:33.506Z,21.08
2022-09-20T13:46:11.532Z,20.60
2022-09-20T13:48:40.842Z,20.62
2022-09-20T13:51:20.648Z,21.07
2022-09-20T13:53:48.958Z,20.84
2022-09-20T13:56:22.845Z,20.98
2022-09-20T13:58:52.739Z,21.37
2022-09-20T14:01:31.130Z,21.22
2022-09-20T14:04:06.450Z,20.91
2022-09-20T14:06:35.803Z,21.18
2022-09-20T14:09:11.028Z,21.19
2022-09-20T14:11:40.992Z,20.71
2022-09-20T14:14:12.435Z,20.98
2022-09-20T14:16:46.808Z,20.91
2022-09-20T14:19:18.458Z,21.20
2022-09-20T14:21:47.130Z,21.07
2022-09-20T14:24:31.896Z,20.37
2022-09-20T14:27:17.861Z,20.23
2022-09-20T14:29:47.796Z,20.40
2022-09-20T14:32:52.612Z,20.57
2022-09-20T14:35:23.240Z,20.79
2022-09-20T14:37:52.640Z,20.99
2022-09-20T14:40:26.360Z,20.80
2022-09-20T14:42:58.826Z,20.94
2022-09-20T14:45:31.694Z,20.56
2022-09-20T14:48:10.349Z,20.85
2022-09-20T14:50:41.457Z,20.54
2022-09-20T14:53:29.822Z,20.32
2022-09-20T14:56:11.768Z,20.66
2022-09-20T14:59:05.574Z,20.84
2022-09-20T15:01:35.319Z,21.12
2022-09-20T15:04:11.217Z,21.25
2022-09-20T15:06:40.105Z,20.94
2022-09-20T15:09:10.634Z,20.55
2022-09-20T15:11:39.332Z,20.88
2022-09-20T15:14:08.321Z,21.15
2022-09-20T15:16:36.969Z,21.11
2022-09-20T15:19:06.211Z,20.29
2022-09-20T15:21:36.323Z,20.75
2022-09-20T15:24:04.799Z,20.31
2022-09-20T15:26:34.572Z,21.19
2022-09-20T15:29:02.963Z,20.58
2022-09-20T15:31:31.774Z,21.01
2022-09-20T15:34:00.145Z,21.10
2022-09-20T15:36:31.935Z,21.05
2022-09-20T15:39:01.984Z,21.21
2022-09-20T15:41:31.546Z,21.22
2022-09-20T15:44:01.622Z,21.24
2022-09-20T15:46:30.242Z,21.20
2022-09-20T15:49:02.704Z,21.22
2022-09-20T15:51:31.584Z,20.98
2022-09-20T15:54:03.463Z,21.26
2022-09-20T15:56:34.234Z,20.92
2022-09-20T15:59:05.268Z,21.26
2022-09-20T16:01:36.925Z,21.30
2022-09-20T16:04:08.180Z,21.34
2022-09-20T16:06:37.205Z,21.36
2022-09-20T16:09:07.904Z,21.28
2022-09-20T16:11:36.429Z,21.01
2022-09-20T16:14:05.057Z,20.83
2022-09-20T16:16:40.079Z,20.61
2022-09-20T16:19:17.762Z,20.62
2022-09-20T16:21:53.553Z,20.67
2022-09-20T16:24:27.972Z,20.74
2022-09-20T16:26:56.628Z,20.54
2022-09-20T16:29:25.876Z,20.68
2022-09-20T16:31:55.685Z,20.75
2022-09-20T16:34:29.806Z,20.77
2022-09-20T16:37:00.759Z,20.62
2022-09-20T16:39:32.044Z,20.19
2022-09-20T16:42:05.046Z,20.85
2022-09-20T16:44:35.473Z,20.77
2022-09-20T16:47:03.936Z,20.74
2022-09-20T16:49:32.314Z,20.61
2022-09-20T16:52:00.667Z,20.74
2022-09-20T16:54:32.048Z,20.32
2022-09-20T16:57:00.694Z,20.56
2022-09-20T16:59:29.124Z,20.37
2022-09-20T17:01:57.565Z,20.28
2022-09-20T17:04:26.007Z,20.46
2022-09-20T17:06:55.636Z,19.90
2022-09-20T17:09:23.971Z,20.29
2022-09-20T17:11:53.792Z,20.32
2022-09-20T17:14:22.354Z,20.21
2022-09-20T17:16:51.375Z,19.99
2022-09-20T17:19:21.625Z,20.10
2022-09-20T17:21:51.739Z,20.07
2022-09-20T17:24:22.682Z,19.97
2022-09-20T17:26:53.845Z,19.88
2022-09-20T17:29:22.607Z,19.90
2022-09-20T17:31:56.251Z,19.80
2022-09-20T17:34:28.014Z,19.78
2022-09-20T17:36:56.458Z,19.71
2022-09-20T17:39:25.357Z,19.69
2022-09-20T17:41:55.217Z,19.70
2022-09-20T17:44:24.097Z,19.52
2022-09-20T17:46:54.162Z,19.58
2022-09-20T17:49:24.205Z,19.55
2022-09-20T17:51:54.730Z,19.52
2022-09-20T17:54:24.656Z,18.92
2022-09-20T17:56:56.004Z,19.47
2022-09-20T17:59:25.662Z,19.26
2022-09-20T18:01:55.637Z,19.30
2022-09-20T18:04:25.385Z,19.14
2022-09-20T18:06:55.521Z,18.98
2022-09-20T18:09:25.462Z,19.16
2022-09-20T18:11:56.814Z,18.66
2022-09-20T18:14:27.917Z,19.08
2022-09-20T18:17:00.856Z,18.67
2022-09-20T18:19:33.082Z,18.90
2022-09-20T18:22:02.723Z,18.93
2022-09-20T18:24:32.140Z,18.49
2022-09-20T18:27:02.236Z,18.91
2022-09-20T18:29:36.561Z,18.74
2022-09-20T18:32:08.484Z,18.74
2022-09-20T18:34:37.039Z,18.67
2022-09-20T18:37:09.078Z,18.66
2022-09-20T18:39:40.866Z,18.50
2022-09-20T18:42:11.331Z,18.45
2022-09-20T18:44:43.165Z,18.37
2022-09-20T18:47:11.757Z,18.46
2022-09-20T18:49:40.236Z,18.44
2022-09-20T18:52:10.745Z,18.37
2022-09-20T18:54:39.116Z,18.26
2022-09-20T18:57:11.314Z,18.14
2022-09-20T18:59:53.771Z,18.10
2022-09-20T19:02:50.466Z,18.11
2022-09-20T19:05:29.526Z,18.16
2022-09-20T19:08:18.008Z,18.16
2022-09-20T19:10:53.325Z,18.18
2022-09-20T19:13:36.393Z,18.12
2022-09-20T19:16:18.566Z,17.94
2022-09-20T19:19:24.731Z,17.88
2022-09-20T19:22:00.020Z,17.73
2022-09-20T19:24:58.231Z,17.53
2022-09-20T19:27:27.650Z,17.46
2022-09-20T19:29:58.590Z,17.38
2022-09-20T19:32:27.908Z,17.10
2022-09-20T19:35:01.666Z,16.90
2022-09-20T19:37:38.940Z,16.97
2022-09-20T19:40:27.445Z,17.02
2022-09-20T19:43:15.161Z,16.90
2022-09-20T19:45:57.242Z,16.80
2022-09-20T19:48:35.466Z,16.64
2022-09-20T19:51:08.361Z,16.67
2022-09-20T19:53:38.075Z,16.37
2022-09-20T19:56:24.769Z,16.44
2022-09-20T19:58:55.931Z,16.43
2022-09-20T20:01:27.758Z,16.42
2022-09-20T20:03:57.117Z,16.00
2022-09-20T20:06:33.894Z,16.44
2022-09-20T20:09:09.800Z,16.45
2022-09-20T20:11:47.606Z,16.49
2022-09-20T20:14:24.958Z,16.20
2022-09-20T20:17:11.477Z,16.43
2022-09-20T20:19:55.341Z,16.48
2022-09-20T20:22:52.310Z,16.15
2022-09-20T20:25:28.406Z,16.38
2022-09-20T20:27:56.862Z,15.95
2022-09-20T20:30:25.825Z,16.31
2022-09-20T20:32:58.717Z,16.36
2022-09-20T20:35:27.903Z,16.30
2022-09-20T20:37:56.186Z,16.31
2022-09-20T20:40:25.033Z,16.30
2022-09-20T20:43:02.177Z,16.09
2022-09-20T20:45:31.044Z,16.29
2022-09-20T20:48:01.340Z,15.54
2022-09-20T20:50:30.492Z,16.08
2022-09-20T20:52:58.961Z,16.28
2022-09-20T20:55:27.409Z,16.28
2022-09-20T20:57:58.286Z,16.38
2022-09-20T21:00:27.586Z,16.34
2022-09-20T21:03:02.046Z,16.46
2022-09-20T21:05:31.969Z,16.37
2022-09-20T21:08:00.447Z,16.59
2022-09-20T21:10:29.008Z,16.70
2022-09-20T21:12:57.634Z,16.68
2022-09-20T21:15:26.232Z,16.65
2022-09-20T21:17:55.236Z,16.67
2022-09-20T21:20:25.862Z,16.72
2022-09-20T21:22:54.351Z,16.71
2022-09-20T21:25:22.646Z,16.80
2022-09-20T21:27:50.898Z,16.89
2022-09-20T21:30:20.585Z,16.90
2022-09-20T21:32:49.021Z,16.81
2022-09-20T21:35:17.526Z,16.64
2022-09-20T21:37:47.621Z,16.55
2022-09-20T21:40:16.181Z,16.52
2022-09-20T21:42:44.543Z,16.61
2022-09-20T21:45:12.940Z,16.63
2022-09-20T21:47:41.377Z,16.59
2022-09-20T21:50:10.898Z,15.93
2022-09-20T21:52:39.219Z,16.46
2022-09-20T21:55:10.750Z,16.52
2022-09-20T21:57:39.132Z,16.51
2022-09-20T22:00:10.076Z,16.28
2022-09-20T22:02:40.910Z,16.37
2022-09-20T22:05:09.925Z,16.39
2022-09-20T22:07:38.172Z,16.29
2022-09-20T22:10:09.445Z,16.19
2022-09-20T22:12:37.865Z,16.13
2022-09-20T22:15:07.690Z,16.05
2022-09-20T22:17:36.054Z,16.08
2022-09-20T22:20:06.054Z,15.95
2022-09-20T22:22:34.866Z,15.96
2022-09-20T22:25:03.628Z,15.94
2022-09-20T22:27:33.950Z,15.89
2022-09-20T22:30:04.925Z,15.78
2022-09-20T22:32:34.126Z,15.78
2022-09-20T22:35:02.875Z,15.78
2022-09-20T22:37:31.751Z,14.18
2022-09-20T22:40:00.660Z,15.25
2022-09-20T22:42:29.589Z,15.67
2022-09-20T22:45:00.447Z,15.73
2022-09-20T22:47:29.220Z,15.62
2022-09-20T22:49:57.937Z,15.65
2022-09-20T22:52:26.744Z,15.72
2022-09-20T22:54:55.728Z,15.67
2022-09-20T22:57:24.575Z,15.66
2022-09-20T22:59:53.323Z,15.72
2022-09-20T23:02:23.703Z,15.67
2022-09-20T23:04:52.629Z,15.74
2022-09-20T23:07:21.428Z,15.74
2022-09-20T23:09:50.374Z,15.77
2022-09-20T23:12:19.222Z,15.75
2022-09-20T23:14:48.047Z,15.09
2022-09-20T23:17:16.864Z,15.66
2022-09-20T23:19:47.091Z,15.67
2022-09-20T23:22:15.886Z,15.49
2022-09-20T23:24:44.626Z,15.55
2022-09-20T23:27:14.653Z,15.55
2022-09-20T23:29:43.593Z,15.56
2022-09-20T23:32:12.402Z,15.54
2022-09-20T23:34:41.214Z,15.63
2022-09-20T23:37:12.052Z,15.71
2022-09-20T23:39:42.613Z,15.76
2022-09-20T23:42:11.501Z,15.74
2022-09-20T23:44:40.277Z,15.89
2022-09-20T23:47:09.184Z,15.94
2022-09-20T23:49:37.878Z,15.95
2022-09-20T23:52:06.836Z,15.13
2022-09-20T23:54:36.968Z,15.98
2022-09-20T23:57:06.535Z,16.03
2022-09-20T23:59:35.384Z,16.00
